createdAt,value
2022-09-15T00:02:52.439Z,100159.22
2022-09-15T00:08:00.885Z,100143.84
2022-09-15T00:13:03.837Z,100146.56
2022-09-15T00:18:06.686Z,100147.66
2022-09-15T00:28:30.831Z,100134.84
2022-09-15T00:33:34.710Z,100145.75
2022-09-15T00:38:39.041Z,100148.75
2022-09-15T00:43:51.772Z,100146.84
2022-09-15T00:49:00.024Z,100149.31
2022-09-15T00:54:07.121Z,100150.97
2022-09-15T01:04:36.657Z,100154.44
2022-09-15T01:09:47.114Z,100145.53
2022-09-15T01:14:50.452Z,100145.53
2022-09-15T01:20:33.591Z,100139.25
2022-09-15T01:31:01.581Z,100125.28
2022-09-15T01:41:32.968Z,100121.69
2022-09-15T01:46:44.000Z,100123.56
2022-09-15T01:57:07.418Z,100104.16
2022-09-15T02:02:14.864Z,100113.44
2022-09-15T02:12:47.334Z,100099.50
2022-09-15T02:17:53.347Z,100104.38
2022-09-15T02:33:41.362Z,100107.66
2022-09-15T02:38:52.424Z,100112.78
2022-09-15T02:43:55.449Z,100105.88
2022-09-15T02:49:03.549Z,100086.94
2022-09-15T02:54:06.608Z,100071.34
2022-09-15T02:59:09.513Z,100084.72
2022-09-15T03:04:17.765Z,100091.53
2022-09-15T03:09:20.491Z,100077.50
2022-09-15T03:14:23.532Z,100080.78
2022-09-15T03:19:32.055Z,100070.84
2022-09-15T03:24:34.857Z,100067.50
2022-09-15T03:29:38.695Z,100074.34
2022-09-15T03:34:47.004Z,100072.94
2022-09-15T03:39:50.042Z,100079.50
2022-09-15T03:44:52.807Z,100090.38
2022-09-15T03:50:01.029Z,100097.47
2022-09-15T03:55:03.826Z,100097.97
2022-09-15T04:00:07.779Z,100101.22
2022-09-15T04:05:17.507Z,100108.06
2022-09-15T04:10:20.850Z,100098.72
2022-09-15T04:20:44.445Z,100097.13
2022-09-15T04:25:56.649Z,100097.84
2022-09-15T04:31:07.145Z,100094.78
2022-09-15T04:36:19.269Z,100085.16
2022-09-15T04:41:22.044Z,100082.69
2022-09-15T04:46:25.614Z,100074.13
2022-09-15T04:51:34.088Z,100081.53
2022-09-15T05:07:14.535Z,100073.88
2022-09-15T05:12:17.300Z,100074.87
2022-09-15T05:17:22.278Z,100070.50
2022-09-15T05:22:32.503Z,100071.06
2022-09-15T05:27:35.267Z,100069.72
2022-09-15T05:32:38.012Z,100064.25
2022-09-15T05:43:09.332Z,100054.03
2022-09-15T05:48:13.607Z,100047.63
2022-09-15T05:53:16.582Z,100046.03
2022-09-15T05:58:24.947Z,100056.47
2022-09-15T06:03:30.839Z,100056.88
2022-09-15T06:08:37.209Z,100052.53
2022-09-15T06:13:46.562Z,100060.84
2022-09-15T06:18:52.446Z,100062.00
2022-09-15T06:24:03.469Z,100058.97
2022-09-15T06:29:16.692Z,100070.53
2022-09-15T06:34:20.345Z,100060.13
2022-09-15T06:39:24.029Z,100066.75
2022-09-15T06:50:08.091Z,100055.84
2022-09-15T06:55:11.853Z,100053.97
2022-09-15T07:00:16.071Z,100055.81
2022-09-15T07:05:24.194Z,100058.22
2022-09-15T07:10:28.841Z,100066.38
2022-09-15T07:15:31.766Z,100071.72
2022-09-15T07:20:40.036Z,100090.41
2022-09-15T07:25:43.975Z,100090.12
2022-09-15T07:30:51.703Z,100090.03
2022-09-15T07:36:01.282Z,100087.78
2022-09-15T07:41:06.144Z,100088.56
2022-09-15T07:46:08.964Z,100082.75
2022-09-15T07:51:19.228Z,100079.53
2022-09-15T07:56:23.500Z,100085.94
2022-09-15T08:01:26.731Z,100074.16
2022-09-15T08:06:35.591Z,100081.37
2022-09-15T08:11:38.361Z,100082.22
2022-09-15T08:16:41.141Z,100083.69
2022-09-15T08:21:50.120Z,100101.91
2022-09-15T08:26:53.901Z,100083.34
2022-09-15T08:31:56.623Z,100085.84
2022-09-15T08:37:05.220Z,100091.34
2022-09-15T08:42:10.482Z,100102.63
2022-09-15T08:47:18.502Z,100110.28
2022-09-15T08:52:31.856Z,100111.28
2022-09-15T08:57:34.839Z,100098.81
2022-09-15T09:03:04.953Z,100100.75
2022-09-15T09:13:59.112Z,100106.19
2022-09-15T09:19:22.253Z,100121.31
2022-09-15T09:24:36.340Z,100123.00
2022-09-15T09:29:47.348Z,100129.31
2022-09-15T09:35:01.478Z,100142.53
2022-09-15T09:40:04.689Z,100130.56
2022-09-15T09:45:16.691Z,100131.13
2022-09-15T09:50:44.125Z,100147.06
2022-09-15T09:55:48.534Z,100151.66
2022-09-15T10:01:10.935Z,100157.31
2022-09-15T10:11:49.297Z,100140.94
2022-09-15T10:22:32.119Z,100133.44
2022-09-15T10:27:37.266Z,100124.97
2022-09-15T10:32:41.317Z,100128.03
2022-09-15T10:49:05.701Z,100128.50
2022-09-15T10:54:32.241Z,100120.16
2022-09-15T11:10:53.028Z,100137.28
2022-09-15T11:16:07.795Z,100146.03
2022-09-15T11:26:40.346Z,100139.22
2022-09-15T11:31:46.181Z,100140.94
2022-09-15T11:42:20.803Z,100145.66
2022-09-15T11:47:30.443Z,100162.03
2022-09-15T11:52:54.324Z,100164.66
2022-09-15T12:14:30.742Z,100163.31
2022-09-15T12:19:53.878Z,100164.88
2022-09-15T12:25:03.855Z,100159.31
2022-09-15T12:30:40.552Z,100167.78
2022-09-15T12:52:02.269Z,100155.66
2022-09-15T13:08:03.773Z,100141.03
2022-09-15T13:13:17.261Z,100143.00
2022-09-15T13:18:22.252Z,100150.38
2022-09-15T13:23:37.739Z,100144.84
2022-09-15T13:40:19.899Z,100119.69
2022-09-15T13:50:52.097Z,100104.28
2022-09-15T13:55:55.580Z,100115.97
2022-09-15T14:01:01.419Z,100106.78
2022-09-15T14:06:14.516Z,100109.84
2022-09-15T14:11:22.671Z,100125.47
2022-09-15T14:16:31.514Z,100114.25
2022-09-15T14:21:48.305Z,100120.31
2022-09-15T14:26:51.105Z,100115.50
2022-09-15T14:31:55.174Z,100109.62
2022-09-15T14:48:00.958Z,100115.69
2022-09-15T14:53:06.109Z,100124.22
2022-09-15T14:58:17.910Z,100117.06
2022-09-15T15:03:35.720Z,100121.31
2022-09-15T15:08:43.799Z,100106.81
2022-09-15T15:13:54.102Z,100108.63
2022-09-15T15:19:02.715Z,100114.53
2022-09-15T15:24:23.732Z,100107.12
2022-09-15T15:29:43.547Z,100115.47
2022-09-15T15:34:59.568Z,100112.78
2022-09-15T15:40:06.546Z,100116.94
2022-09-15T15:45:23.710Z,100108.50
2022-09-15T15:50:32.512Z,100109.94
2022-09-15T15:55:41.454Z,100117.47
2022-09-15T16:00:47.941Z,100112.59
2022-09-15T16:05:59.693Z,100129.81
2022-09-15T16:11:04.053Z,100134.81
2022-09-15T16:16:15.501Z,100137.34
2022-09-15T16:21:32.986Z,100145.41
2022-09-15T16:26:35.781Z,100141.28
2022-09-15T16:37:04.029Z,100132.75
2022-09-15T16:42:07.261Z,100130.00
2022-09-15T16:47:10.861Z,100137.69
2022-09-15T16:52:19.994Z,100136.28
2022-09-15T16:57:22.878Z,100141.22
2022-09-15T17:13:20.570Z,100132.03
2022-09-15T17:18:27.954Z,100138.25
2022-09-15T17:23:39.013Z,100133.81
2022-09-15T17:28:47.984Z,100134.56
2022-09-15T17:33:52.506Z,100131.19
2022-09-15T17:49:41.129Z,100151.88
2022-09-15T17:54:43.924Z,100160.75
2022-09-15T18:10:38.651Z,100152.44
2022-09-15T18:15:41.655Z,100143.75
2022-09-15T18:20:45.255Z,100152.97
2022-09-15T18:31:15.511Z,100158.03
2022-09-15T18:47:00.220Z,100150.00
2022-09-15T18:52:06.607Z,100154.47
2022-09-15T18:57:13.328Z,100162.03
2022-09-15T19:02:23.606Z,100171.00
2022-09-15T19:23:10.564Z,100166.25
2022-09-15T19:33:20.804Z,100160.03
2022-09-15T19:50:43.561Z,100158.81
2022-09-15T20:11:29.482Z,100174.22
2022-09-15T20:16:33.713Z,100176.63
2022-09-15T20:21:54.010Z,100179.03
2022-09-15T20:27:06.739Z,100178.66
2022-09-15T20:32:10.153Z,100197.81
2022-09-15T20:37:13.096Z,100178.34
2022-09-15T20:42:21.453Z,100184.88
2022-09-15T20:47:24.173Z,100184.53
2022-09-15T20:52:29.503Z,100184.47
2022-09-15T20:57:37.756Z,100192.56
2022-09-15T21:02:40.552Z,100213.06
2022-09-15T21:07:43.548Z,100233.41
2022-09-15T21:12:51.775Z,100229.66
2022-09-15T21:17:54.495Z,100221.22
2022-09-15T21:22:58.071Z,100222.94
2022-09-15T21:33:25.376Z,100224.13
2022-09-15T21:38:28.113Z,100228.22
2022-09-15T21:43:31.578Z,100222.06
2022-09-15T21:48:39.908Z,100226.34
2022-09-15T21:53:43.502Z,100221.34
2022-09-15T21:58:46.343Z,100220.66
2022-09-15T22:20:10.783Z,100231.00
2022-09-15T22:30:33.265Z,100226.34
2022-09-15T22:40:56.822Z,100234.06
2022-09-15T22:46:00.835Z,100239.88
2022-09-15T22:51:04.166Z,100232.38
2022-09-15T23:22:49.312Z,100233.00
2022-09-15T23:27:52.084Z,100233.56
2022-09-15T23:32:55.491Z,100230.09
2022-09-15T23:38:04.996Z,100226.19
2022-09-15T23:48:30.505Z,100223.34
2022-09-15T23:53:33.612Z,100220.81
